sensor_id;sensor_type;location;lat;lon;timestamp;P1;durP1;ratioP1;P2;durP2;ratioP2
80983;SDS011;73733;53.046;8.724;2024-02-26T00:01:21;3.37;;;2.13;;
80983;SDS011;73733;53.046;8.724;2024-02-26T00:03:46;3.37;;;2.63;;
80983;SDS011;73733;53.046;8.724;2024-02-26T00:06:12;3.47;;;2.58;;
80983;SDS011;73733;53.046;8.724;2024-02-26T00:08:37;2.97;;;2.27;;
80983;SDS011;73733;53.046;8.724;2024-02-26T00:11:03;3.37;;;2.60;;
80983;SDS011;73733;53.046;8.724;2024-02-26T00:13:28;3.85;;;2.47;;
80983;SDS011;73733;53.046;8.724;2024-02-26T00:15:53;2.83;;;2.13;;
80983;SDS011;73733;53.046;8.724;2024-02-26T00:18:18;4.53;;;2.83;;
80983;SDS011;73733;53.046;8.724;2024-02-26T00:20:44;3.07;;;2.63;;
80983;SDS011;73733;53.046;8.724;2024-02-26T00:23:09;3.50;;;2.33;;
80983;SDS011;73733;53.046;8.724;2024-02-26T00:25:34;3.90;;;2.10;;
80983;SDS011;73733;53.046;8.724;2024-02-26T00:28:01;3.97;;;2.53;;
80983;SDS011;73733;53.046;8.724;2024-02-26T00:30:26;3.30;;;2.10;;
80983;SDS011;73733;53.046;8.724;2024-02-26T00:32:51;3.83;;;2.30;;
80983;SDS011;73733;53.046;8.724;2024-02-26T00:35:17;3.43;;;2.17;;
80983;SDS011;73733;53.046;8.724;2024-02-26T00:37:45;3.05;;;2.10;;
80983;SDS011;73733;53.046;8.724;2024-02-26T00:40:10;3.65;;;2.15;;
80983;SDS011;73733;53.046;8.724;2024-02-26T00:42:36;3.10;;;2.30;;
80983;SDS011;73733;53.046;8.724;2024-02-26T00:45:01;3.77;;;2.10;;
80983;SDS011;73733;53.046;8.724;2024-02-26T00:47:27;3.25;;;1.88;;
80983;SDS011;73733;53.046;8.724;2024-02-26T00:49:52;2.93;;;2.20;;
80983;SDS011;73733;53.046;8.724;2024-02-26T00:52:17;3.43;;;1.90;;
80983;SDS011;73733;53.046;8.724;2024-02-26T00:54:43;4.77;;;2.40;;
80983;SDS011;73733;53.046;8.724;2024-02-26T00:57:08;3.57;;;2.63;;
80983;SDS011;73733;53.046;8.724;2024-02-26T00:59:33;3.80;;;2.30;;
80983;SDS011;73733;53.046;8.724;2024-02-26T01:01:58;2.70;;;1.90;;
80983;SDS011;73733;53.046;8.724;2024-02-26T01:04:27;3.35;;;2.15;;
80983;SDS011;73733;53.046;8.724;2024-02-26T01:06:52;2.80;;;2.30;;
80983;SDS011;73733;53.046;8.724;2024-02-26T01:09:17;4.07;;;2.70;;
80983;SDS011;73733;53.046;8.724;2024-02-26T01:11:43;3.15;;;2.10;;
80983;SDS011;73733;53.046;8.724;2024-02-26T01:14:08;2.75;;;2.17;;
80983;SDS011;73733;53.046;8.724;2024-02-26T01:16:33;4.40;;;2.47;;
80983;SDS011;73733;53.046;8.724;2024-02-26T01:18:59;3.57;;;2.87;;
80983;SDS011;73733;53.046;8.724;2024-02-26T01:21:24;3.67;;;2.50;;
80983;SDS011;73733;53.046;8.724;2024-02-26T01:23:49;4.20;;;2.77;;
80983;SDS011;73733;53.046;8.724;2024-02-26T01:26:15;3.20;;;2.75;;
80983;SDS011;73733;53.046;8.724;2024-02-26T01:28:40;4.10;;;2.83;;
80983;SDS011;73733;53.046;8.724;2024-02-26T01:31:06;3.40;;;2.53;;
80983;SDS011;73733;53.046;8.724;2024-02-26T01:33:33;3.10;;;2.42;;
80983;SDS011;73733;53.046;8.724;2024-02-26T01:35:58;3.43;;;2.40;;
80983;SDS011;73733;53.046;8.724;2024-02-26T01:38:25;4.07;;;2.50;;
80983;SDS011;73733;53.046;8.724;2024-02-26T01:40:51;3.40;;;2.53;;
80983;SDS011;73733;53.046;8.724;2024-02-26T01:43:16;3.20;;;2.37;;
80983;SDS011;73733;53.046;8.724;2024-02-26T01:45:41;4.47;;;2.60;;
80983;SDS011;73733;53.046;8.724;2024-02-26T01:48:06;3.93;;;2.50;;
80983;SDS011;73733;53.046;8.724;2024-02-26T01:50:32;5.10;;;2.47;;
80983;SDS011;73733;53.046;8.724;2024-02-26T01:52:59;4.55;;;2.92;;
80983;SDS011;73733;53.046;8.724;2024-02-26T01:55:24;3.67;;;2.73;;
80983;SDS011;73733;53.046;8.724;2024-02-26T01:57:51;4.72;;;2.47;;
80983;SDS011;73733;53.046;8.724;2024-02-26T02:00:17;3.88;;;2.83;;
80983;SDS011;73733;53.046;8.724;2024-02-26T02:02:43;3.45;;;2.75;;
80983;SDS011;73733;53.046;8.724;2024-02-26T02:05:11;3.50;;;2.28;;
80983;SDS011;73733;53.046;8.724;2024-02-26T02:07:37;3.67;;;2.42;;
80983;SDS011;73733;53.046;8.724;2024-02-26T02:10:03;3.22;;;2.50;;
80983;SDS011;73733;53.046;8.724;2024-02-26T02:12:28;3.60;;;2.78;;
80983;SDS011;73733;53.046;8.724;2024-02-26T02:14:54;3.67;;;2.53;;
80983;SDS011;73733;53.046;8.724;2024-02-26T02:17:19;3.10;;;2.33;;
80983;SDS011;73733;53.046;8.724;2024-02-26T02:19:45;3.60;;;2.40;;
80983;SDS011;73733;53.046;8.724;2024-02-26T02:22:10;4.60;;;3.17;;
80983;SDS011;73733;53.046;8.724;2024-02-26T02:24:36;3.93;;;2.77;;
80983;SDS011;73733;53.046;8.724;2024-02-26T02:27:01;2.95;;;2.22;;
80983;SDS011;73733;53.046;8.724;2024-02-26T02:29:27;4.72;;;3.30;;
80983;SDS011;73733;53.046;8.724;2024-02-26T02:31:53;3.95;;;3.05;;
80983;SDS011;73733;53.046;8.724;2024-02-26T02:34:18;3.58;;;2.47;;
80983;SDS011;73733;53.046;8.724;2024-02-26T02:36:53;3.80;;;2.07;;
80983;SDS011;73733;53.046;8.724;2024-02-26T02:39:19;3.30;;;2.38;;
80983;SDS011;73733;53.046;8.724;2024-02-26T02:41:44;3.60;;;2.40;;
80983;SDS011;73733;53.046;8.724;2024-02-26T02:44:09;3.38;;;2.17;;
80983;SDS011;73733;53.046;8.724;2024-02-26T02:46:35;3.47;;;2.23;;
80983;SDS011;73733;53.046;8.724;2024-02-26T02:49:00;3.22;;;2.35;;
80983;SDS011;73733;53.046;8.724;2024-02-26T02:51:26;3.63;;;2.53;;
80983;SDS011;73733;53.046;8.724;2024-02-26T02:53:51;4.10;;;2.93;;
80983;SDS011;73733;53.046;8.724;2024-02-26T02:56:16;4.20;;;2.07;;
80983;SDS011;73733;53.046;8.724;2024-02-26T02:58:42;3.97;;;2.37;;
80983;SDS011;73733;53.046;8.724;2024-02-26T03:01:07;3.57;;;2.50;;
80983;SDS011;73733;53.046;8.724;2024-02-26T03:03:32;4.03;;;2.60;;
80983;SDS011;73733;53.046;8.724;2024-02-26T03:05:58;3.25;;;2.53;;
80983;SDS011;73733;53.046;8.724;2024-02-26T03:08:23;3.60;;;2.47;;
80983;SDS011;73733;53.046;8.724;2024-02-26T03:10:50;4.60;;;2.83;;
80983;SDS011;73733;53.046;8.724;2024-02-26T03:13:16;3.53;;;2.70;;
80983;SDS011;73733;53.046;8.724;2024-02-26T03:15:41;3.80;;;2.50;;
80983;SDS011;73733;53.046;8.724;2024-02-26T03:18:06;3.47;;;2.43;;
80983;SDS011;73733;53.046;8.724;2024-02-26T03:20:31;4.20;;;2.87;;
80983;SDS011;73733;53.046;8.724;2024-02-26T03:22:57;4.57;;;2.63;;
80983;SDS011;73733;53.046;8.724;2024-02-26T03:25:22;4.00;;;2.83;;
80983;SDS011;73733;53.046;8.724;2024-02-26T03:27:47;4.03;;;2.67;;
80983;SDS011;73733;53.046;8.724;2024-02-26T03:30:13;4.07;;;2.77;;
80983;SDS011;73733;53.046;8.724;2024-02-26T03:32:38;4.20;;;2.47;;
80983;SDS011;73733;53.046;8.724;2024-02-26T03:35:04;4.10;;;3.03;;
80983;SDS011;73733;53.046;8.724;2024-02-26T03:37:29;3.67;;;2.60;;
80983;SDS011;73733;53.046;8.724;2024-02-26T03:39:55;5.17;;;2.67;;
80983;SDS011;73733;53.046;8.724;2024-02-26T03:42:22;4.88;;;2.90;;
80983;SDS011;73733;53.046;8.724;2024-02-26T03:44:47;4.53;;;2.73;;
80983;SDS011;73733;53.046;8.724;2024-02-26T03:47:13;4.90;;;2.33;;
80983;SDS011;73733;53.046;8.724;2024-02-26T03:49:38;4.00;;;2.63;;
80983;SDS011;73733;53.046;8.724;2024-02-26T03:52:03;4.47;;;3.03;;
80983;SDS011;73733;53.046;8.724;2024-02-26T03:54:29;3.58;;;2.40;;
80983;SDS011;73733;53.046;8.724;2024-02-26T03:56:54;4.57;;;3.03;;
80983;SDS011;73733;53.046;8.724;2024-02-26T03:59:19;4.07;;;2.93;;
80983;SDS011;73733;53.046;8.724;2024-02-26T04:01:46;4.88;;;3.20;;
80983;SDS011;73733;53.046;8.724;2024-02-26T04:04:12;3.85;;;2.70;;
80983;SDS011;73733;53.046;8.724;2024-02-26T04:06:37;4.63;;;3.08;;
80983;SDS011;73733;53.046;8.724;2024-02-26T04:09:03;3.97;;;2.60;;
80983;SDS011;73733;53.046;8.724;2024-02-26T04:11:28;4.65;;;2.90;;
80983;SDS011;73733;53.046;8.724;2024-02-26T04:13:54;4.97;;;3.20;;
80983;SDS011;73733;53.046;8.724;2024-02-26T04:16:19;4.23;;;3.27;;
80983;SDS011;73733;53.046;8.724;2024-02-26T04:18:45;4.30;;;2.65;;
80983;SDS011;73733;53.046;8.724;2024-02-26T04:21:10;4.60;;;2.53;;
80983;SDS011;73733;53.046;8.724;2024-02-26T04:23:35;4.50;;;2.67;;
80983;SDS011;73733;53.046;8.724;2024-02-26T04:26:01;4.23;;;2.90;;
80983;SDS011;73733;53.046;8.724;2024-02-26T04:28:26;4.32;;;2.60;;
80983;SDS011;73733;53.046;8.724;2024-02-26T04:30:53;4.45;;;2.78;;
80983;SDS011;73733;53.046;8.724;2024-02-26T04:33:19;4.03;;;2.40;;
80983;SDS011;73733;53.046;8.724;2024-02-26T04:35:44;4.07;;;2.70;;
80983;SDS011;73733;53.046;8.724;2024-02-26T04:38:09;4.23;;;2.63;;
80983;SDS011;73733;53.046;8.724;2024-02-26T04:40:35;3.90;;;2.27;;
80983;SDS011;73733;53.046;8.724;2024-02-26T04:43:00;4.95;;;2.95;;
80983;SDS011;73733;53.046;8.724;2024-02-26T04:45:26;4.07;;;2.60;;
80983;SDS011;73733;53.046;8.724;2024-02-26T04:47:51;4.33;;;2.63;;
80983;SDS011;73733;53.046;8.724;2024-02-26T04:50:16;3.77;;;2.20;;
80983;SDS011;73733;53.046;8.724;2024-02-26T04:52:42;3.58;;;2.50;;
80983;SDS011;73733;53.046;8.724;2024-02-26T04:55:07;4.30;;;2.60;;
80983;SDS011;73733;53.046;8.724;2024-02-26T04:57:33;3.80;;;2.72;;
80983;SDS011;73733;53.046;8.724;2024-02-26T04:59:58;4.70;;;2.97;;
80983;SDS011;73733;53.046;8.724;2024-02-26T05:02:23;4.15;;;2.72;;
80983;SDS011;73733;53.046;8.724;2024-02-26T05:04:49;4.28;;;2.55;;
80983;SDS011;73733;53.046;8.724;2024-02-26T05:07:14;3.72;;;2.50;;
80983;SDS011;73733;53.046;8.724;2024-02-26T05:12:08;3.63;;;2.38;;
80983;SDS011;73733;53.046;8.724;2024-02-26T05:14:34;3.92;;;2.53;;
80983;SDS011;73733;53.046;8.724;2024-02-26T05:16:59;3.50;;;2.10;;
80983;SDS011;73733;53.046;8.724;2024-02-26T05:19:24;3.73;;;2.63;;
80983;SDS011;73733;53.046;8.724;2024-02-26T05:21:50;3.33;;;2.17;;
80983;SDS011;73733;53.046;8.724;2024-02-26T05:24:15;3.67;;;2.30;;
80983;SDS011;73733;53.046;8.724;2024-02-26T05:26:42;3.55;;;2.47;;
80983;SDS011;73733;53.046;8.724;2024-02-26T05:29:08;4.18;;;2.65;;
80983;SDS011;73733;53.046;8.724;2024-02-26T05:31:33;4.13;;;2.50;;
80983;SDS011;73733;53.046;8.724;2024-02-26T05:33:58;4.53;;;3.10;;
80983;SDS011;73733;53.046;8.724;2024-02-26T05:36:24;4.27;;;2.67;;
80983;SDS011;73733;53.046;8.724;2024-02-26T05:38:50;4.28;;;2.58;;
80983;SDS011;73733;53.046;8.724;2024-02-26T05:41:15;4.53;;;2.80;;
80983;SDS011;73733;53.046;8.724;2024-02-26T05:43:41;3.78;;;2.60;;
80983;SDS011;73733;53.046;8.724;2024-02-26T05:46:07;4.07;;;2.60;;
80983;SDS011;73733;53.046;8.724;2024-02-26T05:48:32;4.47;;;2.80;;
80983;SDS011;73733;53.046;8.724;2024-02-26T05:50:57;5.00;;;3.27;;
80983;SDS011;73733;53.046;8.724;2024-02-26T05:53:23;4.97;;;3.00;;
80983;SDS011;73733;53.046;8.724;2024-02-26T05:55:48;3.90;;;2.43;;
80983;SDS011;73733;53.046;8.724;2024-02-26T05:58:13;5.33;;;3.23;;
80983;SDS011;73733;53.046;8.724;2024-02-26T06:00:39;4.88;;;3.03;;
80983;SDS011;73733;53.046;8.724;2024-02-26T06:03:04;5.50;;;3.30;;
80983;SDS011;73733;53.046;8.724;2024-02-26T06:05:29;6.37;;;3.53;;
80983;SDS011;73733;53.046;8.724;2024-02-26T06:07:55;7.00;;;3.80;;
80983;SDS011;73733;53.046;8.724;2024-02-26T06:10:20;6.43;;;3.77;;
80983;SDS011;73733;53.046;8.724;2024-02-26T06:12:46;7.30;;;4.00;;
80983;SDS011;73733;53.046;8.724;2024-02-26T06:15:11;7.03;;;4.53;;
80983;SDS011;73733;53.046;8.724;2024-02-26T06:17:37;7.55;;;4.47;;
80983;SDS011;73733;53.046;8.724;2024-02-26T06:20:02;7.20;;;3.77;;
80983;SDS011;73733;53.046;8.724;2024-02-26T06:22:30;8.18;;;4.43;;
80983;SDS011;73733;53.046;8.724;2024-02-26T06:24:55;8.67;;;5.07;;
80983;SDS011;73733;53.046;8.724;2024-02-26T06:27:20;7.10;;;4.33;;
80983;SDS011;73733;53.046;8.724;2024-02-26T06:29:46;8.38;;;4.47;;
80983;SDS011;73733;53.046;8.724;2024-02-26T06:32:12;8.05;;;4.80;;
80983;SDS011;73733;53.046;8.724;2024-02-26T06:34:37;6.73;;;4.10;;
80983;SDS011;73733;53.046;8.724;2024-02-26T06:37:03;8.13;;;4.78;;
80983;SDS011;73733;53.046;8.724;2024-02-26T06:39:28;7.70;;;4.40;;
80983;SDS011;73733;53.046;8.724;2024-02-26T06:41:54;9.20;;;4.73;;
80983;SDS011;73733;53.046;8.724;2024-02-26T06:44:25;8.15;;;4.13;;
80983;SDS011;73733;53.046;8.724;2024-02-26T06:46:51;7.95;;;5.35;;
80983;SDS011;73733;53.046;8.724;2024-02-26T06:49:16;8.33;;;4.97;;
80983;SDS011;73733;53.046;8.724;2024-02-26T06:51:41;9.52;;;4.90;;
80983;SDS011;73733;53.046;8.724;2024-02-26T06:54:07;8.30;;;4.23;;
80983;SDS011;73733;53.046;8.724;2024-02-26T06:56:32;9.00;;;4.83;;
80983;SDS011;73733;53.046;8.724;2024-02-26T06:58:57;8.83;;;4.40;;
80983;SDS011;73733;53.046;8.724;2024-02-26T07:01:22;8.80;;;4.80;;
80983;SDS011;73733;53.046;8.724;2024-02-26T07:03:48;8.53;;;5.07;;
80983;SDS011;73733;53.046;8.724;2024-02-26T07:06:13;8.77;;;4.57;;
80983;SDS011;73733;53.046;8.724;2024-02-26T07:08:38;8.18;;;4.53;;
80983;SDS011;73733;53.046;8.724;2024-02-26T07:11:07;8.57;;;5.00;;
80983;SDS011;73733;53.046;8.724;2024-02-26T07:13:33;8.02;;;4.40;;
80983;SDS011;73733;53.046;8.724;2024-02-26T07:15:58;9.07;;;4.67;;
80983;SDS011;73733;53.046;8.724;2024-02-26T07:18:23;7.53;;;4.13;;
80983;SDS011;73733;53.046;8.724;2024-02-26T07:20:49;8.43;;;4.57;;
80983;SDS011;73733;53.046;8.724;2024-02-26T07:23:14;7.90;;;4.47;;
80983;SDS011;73733;53.046;8.724;2024-02-26T07:25:39;9.83;;;4.83;;
80983;SDS011;73733;53.046;8.724;2024-02-26T07:28:05;8.43;;;4.80;;
80983;SDS011;73733;53.046;8.724;2024-02-26T07:30:31;8.93;;;4.57;;
80983;SDS011;73733;53.046;8.724;2024-02-26T07:32:56;8.97;;;4.60;;
80983;SDS011;73733;53.046;8.724;2024-02-26T07:35:22;9.70;;;5.30;;
80983;SDS011;73733;53.046;8.724;2024-02-26T07:37:47;9.83;;;5.00;;
80983;SDS011;73733;53.046;8.724;2024-02-26T07:40:14;9.27;;;4.97;;
80983;SDS011;73733;53.046;8.724;2024-02-26T07:42:39;10.32;;;5.53;;
80983;SDS011;73733;53.046;8.724;2024-02-26T07:45:05;8.00;;;4.63;;
80983;SDS011;73733;53.046;8.724;2024-02-26T07:47:30;8.95;;;5.85;;
80983;SDS011;73733;53.046;8.724;2024-02-26T07:49:56;11.02;;;6.03;;
80983;SDS011;73733;53.046;8.724;2024-02-26T07:52:22;9.70;;;4.80;;
80983;SDS011;73733;53.046;8.724;2024-02-26T07:54:47;9.70;;;5.30;;
80983;SDS011;73733;53.046;8.724;2024-02-26T07:57:13;8.77;;;5.07;;
80983;SDS011;73733;53.046;8.724;2024-02-26T07:59:41;10.23;;;5.55;;
80983;SDS011;73733;53.046;8.724;2024-02-26T08:02:06;8.97;;;4.70;;
80983;SDS011;73733;53.046;8.724;2024-02-26T08:04:32;9.02;;;4.78;;
80983;SDS011;73733;53.046;8.724;2024-02-26T08:06:57;10.70;;;5.30;;
80983;SDS011;73733;53.046;8.724;2024-02-26T08:09:23;11.67;;;6.03;;
80983;SDS011;73733;53.046;8.724;2024-02-26T08:11:48;8.53;;;4.97;;
80983;SDS011;73733;53.046;8.724;2024-02-26T08:14:13;8.57;;;5.57;;
80983;SDS011;73733;53.046;8.724;2024-02-26T08:16:39;8.80;;;5.15;;
80983;SDS011;73733;53.046;8.724;2024-02-26T08:19:04;8.07;;;4.70;;
80983;SDS011;73733;53.046;8.724;2024-02-26T08:21:29;9.43;;;5.07;;
80983;SDS011;73733;53.046;8.724;2024-02-26T08:23:55;8.17;;;4.90;;
80983;SDS011;73733;53.046;8.724;2024-02-26T08:26:20;8.43;;;4.67;;
80983;SDS011;73733;53.046;8.724;2024-02-26T08:28:47;8.70;;;4.82;;
80983;SDS011;73733;53.046;8.724;2024-02-26T08:31:14;8.68;;;5.20;;
80983;SDS011;73733;53.046;8.724;2024-02-26T08:33:39;7.37;;;4.77;;
80983;SDS011;73733;53.046;8.724;2024-02-26T08:36:05;10.90;;;5.97;;
80983;SDS011;73733;53.046;8.724;2024-02-26T08:38:30;7.28;;;4.50;;
80983;SDS011;73733;53.046;8.724;2024-02-26T08:40:56;7.57;;;4.50;;
80983;SDS011;73733;53.046;8.724;2024-02-26T08:43:21;7.70;;;5.03;;
80983;SDS011;73733;53.046;8.724;2024-02-26T08:45:46;8.00;;;4.83;;
80983;SDS011;73733;53.046;8.724;2024-02-26T08:48:12;7.77;;;4.53;;
80983;SDS011;73733;53.046;8.724;2024-02-26T08:50:37;7.97;;;4.87;;
80983;SDS011;73733;53.046;8.724;2024-02-26T08:53:02;8.30;;;5.30;;
80983;SDS011;73733;53.046;8.724;2024-02-26T08:55:29;9.77;;;4.93;;
80983;SDS011;73733;53.046;8.724;2024-02-26T08:57:54;8.20;;;5.20;;
80983;SDS011;73733;53.046;8.724;2024-02-26T09:00:19;9.87;;;5.30;;
80983;SDS011;73733;53.046;8.724;2024-02-26T09:02:45;9.00;;;5.38;;
80983;SDS011;73733;53.046;8.724;2024-02-26T09:05:12;8.95;;;5.05;;
80983;SDS011;73733;53.046;8.724;2024-02-26T09:07:37;7.57;;;4.73;;
80983;SDS011;73733;53.046;8.724;2024-02-26T09:10:02;8.73;;;4.87;;
80983;SDS011;73733;53.046;8.724;2024-02-26T09:12:28;8.63;;;5.13;;
80983;SDS011;73733;53.046;8.724;2024-02-26T09:14:53;8.17;;;5.03;;
80983;SDS011;73733;53.046;8.724;2024-02-26T09:19:46;6.80;;;3.90;;
80983;SDS011;73733;53.046;8.724;2024-02-26T09:22:11;7.10;;;4.13;;
80983;SDS011;73733;53.046;8.724;2024-02-26T09:24:37;7.67;;;4.40;;
80983;SDS011;73733;53.046;8.724;2024-02-26T09:27:02;8.63;;;4.47;;
80983;SDS011;73733;53.046;8.724;2024-02-26T09:29:27;7.78;;;4.43;;
80983;SDS011;73733;53.046;8.724;2024-02-26T09:31:53;7.07;;;4.13;;
80983;SDS011;73733;53.046;8.724;2024-02-26T09:34:18;7.13;;;4.83;;
80983;SDS011;73733;53.046;8.724;2024-02-26T09:36:43;7.93;;;4.43;;
80983;SDS011;73733;53.046;8.724;2024-02-26T09:39:09;7.35;;;3.90;;
80983;SDS011;73733;53.046;8.724;2024-02-26T09:41:36;6.55;;;3.67;;
80983;SDS011;73733;53.046;8.724;2024-02-26T09:44:02;6.47;;;4.15;;
80983;SDS011;73733;53.046;8.724;2024-02-26T09:46:27;5.95;;;3.10;;
80983;SDS011;73733;53.046;8.724;2024-02-26T09:48:53;5.28;;;3.55;;
80983;SDS011;73733;53.046;8.724;2024-02-26T09:51:18;6.72;;;4.35;;
80983;SDS011;73733;53.046;8.724;2024-02-26T09:53:44;6.22;;;4.22;;
80983;SDS011;73733;53.046;8.724;2024-02-26T09:56:12;6.18;;;3.47;;
80983;SDS011;73733;53.046;8.724;2024-02-26T09:58:40;6.65;;;3.85;;
80983;SDS011;73733;53.046;8.724;2024-02-26T10:01:10;5.32;;;3.38;;
80983;SDS011;73733;53.046;8.724;2024-02-26T10:03:38;6.28;;;3.88;;
80983;SDS011;73733;53.046;8.724;2024-02-26T10:06:05;6.40;;;3.72;;
80983;SDS011;73733;53.046;8.724;2024-02-26T10:08:32;4.47;;;2.83;;
80983;SDS011;73733;53.046;8.724;2024-02-26T10:10:57;6.03;;;3.28;;
80983;SDS011;73733;53.046;8.724;2024-02-26T10:13:22;5.70;;;3.40;;
80983;SDS011;73733;53.046;8.724;2024-02-26T10:15:48;5.00;;;3.07;;
80983;SDS011;73733;53.046;8.724;2024-02-26T10:18:13;4.53;;;2.85;;
80983;SDS011;73733;53.046;8.724;2024-02-26T10:20:39;4.43;;;3.20;;
80983;SDS011;73733;53.046;8.724;2024-02-26T10:23:04;4.50;;;3.10;;
80983;SDS011;73733;53.046;8.724;2024-02-26T10:25:30;3.78;;;2.90;;
80983;SDS011;73733;53.046;8.724;2024-02-26T10:27:58;6.20;;;3.65;;
80983;SDS011;73733;53.046;8.724;2024-02-26T10:30:24;4.38;;;2.95;;
80983;SDS011;73733;53.046;8.724;2024-02-26T10:32:51;4.97;;;2.80;;
80983;SDS011;73733;53.046;8.724;2024-02-26T10:35:17;5.72;;;3.53;;
80983;SDS011;73733;53.046;8.724;2024-02-26T10:37:43;5.60;;;2.97;;
80983;SDS011;73733;53.046;8.724;2024-02-26T10:40:11;5.32;;;2.58;;
80983;SDS011;73733;53.046;8.724;2024-02-26T10:42:38;5.60;;;3.33;;
80983;SDS011;73733;53.046;8.724;2024-02-26T10:45:04;3.67;;;2.50;;
80983;SDS011;73733;53.046;8.724;2024-02-26T10:49:56;4.88;;;2.72;;
80983;SDS011;73733;53.046;8.724;2024-02-26T10:52:22;4.68;;;3.05;;
80983;SDS011;73733;53.046;8.724;2024-02-26T10:54:50;4.25;;;2.85;;
80983;SDS011;73733;53.046;8.724;2024-02-26T10:57:15;4.07;;;2.83;;
80983;SDS011;73733;53.046;8.724;2024-02-26T11:02:08;5.67;;;2.70;;
80983;SDS011;73733;53.046;8.724;2024-02-26T11:04:35;4.03;;;2.20;;
80983;SDS011;73733;53.046;8.724;2024-02-26T11:07:00;4.53;;;3.00;;
80983;SDS011;73733;53.046;8.724;2024-02-26T11:09:26;4.63;;;2.88;;
80983;SDS011;73733;53.046;8.724;2024-02-26T11:11:52;5.63;;;3.00;;
80983;SDS011;73733;53.046;8.724;2024-02-26T11:16:44;5.17;;;2.87;;
80983;SDS011;73733;53.046;8.724;2024-02-26T11:19:10;4.70;;;3.58;;
80983;SDS011;73733;53.046;8.724;2024-02-26T11:21:38;5.38;;;2.85;;
80983;SDS011;73733;53.046;8.724;2024-02-26T11:24:05;5.38;;;3.35;;
80983;SDS011;73733;53.046;8.724;2024-02-26T11:26:47;4.55;;;2.55;;
80983;SDS011;73733;53.046;8.724;2024-02-26T11:29:16;4.25;;;2.67;;
80983;SDS011;73733;53.046;8.724;2024-02-26T11:31:44;5.50;;;2.88;;
80983;SDS011;73733;53.046;8.724;2024-02-26T11:34:09;3.75;;;2.50;;
80983;SDS011;73733;53.046;8.724;2024-02-26T11:36:36;3.88;;;2.58;;
80983;SDS011;73733;53.046;8.724;2024-02-26T11:39:01;6.03;;;3.33;;
80983;SDS011;73733;53.046;8.724;2024-02-26T11:41:26;5.00;;;3.25;;
80983;SDS011;73733;53.046;8.724;2024-02-26T11:43:59;5.75;;;3.20;;
80983;SDS011;73733;53.046;8.724;2024-02-26T11:46:29;6.28;;;3.80;;
80983;SDS011;73733;53.046;8.724;2024-02-26T11:48:59;5.47;;;3.20;;
80983;SDS011;73733;53.046;8.724;2024-02-26T11:51:32;5.10;;;3.00;;
80983;SDS011;73733;53.046;8.724;2024-02-26T11:53:58;6.72;;;3.35;;
80983;SDS011;73733;53.046;8.724;2024-02-26T11:56:24;4.57;;;3.07;;
80983;SDS011;73733;53.046;8.724;2024-02-26T11:58:57;4.40;;;2.90;;
80983;SDS011;73733;53.046;8.724;2024-02-26T12:04:14;5.60;;;2.83;;
80983;SDS011;73733;53.046;8.724;2024-02-26T12:06:45;4.13;;;2.58;;
80983;SDS011;73733;53.046;8.724;2024-02-26T12:09:12;4.90;;;2.83;;
80983;SDS011;73733;53.046;8.724;2024-02-26T12:11:38;5.32;;;3.13;;
80983;SDS011;73733;53.046;8.724;2024-02-26T12:14:05;4.88;;;2.70;;
80983;SDS011;73733;53.046;8.724;2024-02-26T12:19:05;4.05;;;3.00;;
80983;SDS011;73733;53.046;8.724;2024-02-26T12:21:35;3.78;;;2.45;;
80983;SDS011;73733;53.046;8.724;2024-02-26T12:24:14;4.22;;;2.83;;
80983;SDS011;73733;53.046;8.724;2024-02-26T12:26:40;4.05;;;2.95;;
80983;SDS011;73733;53.046;8.724;2024-02-26T12:29:06;3.88;;;2.30;;
80983;SDS011;73733;53.046;8.724;2024-02-26T12:31:32;4.15;;;2.60;;
80983;SDS011;73733;53.046;8.724;2024-02-26T12:33:58;3.63;;;2.40;;
80983;SDS011;73733;53.046;8.724;2024-02-26T12:36:25;4.93;;;3.25;;
80983;SDS011;73733;53.046;8.724;2024-02-26T12:38:50;4.60;;;3.20;;
80983;SDS011;73733;53.046;8.724;2024-02-26T12:41:16;4.07;;;2.50;;
80983;SDS011;73733;53.046;8.724;2024-02-26T12:43:41;4.40;;;2.67;;
80983;SDS011;73733;53.046;8.724;2024-02-26T12:46:07;3.65;;;2.45;;
80983;SDS011;73733;53.046;8.724;2024-02-26T12:48:32;3.30;;;2.70;;
80983;SDS011;73733;53.046;8.724;2024-02-26T12:50:58;3.60;;;2.45;;
80983;SDS011;73733;53.046;8.724;2024-02-26T12:53:24;3.20;;;2.38;;
80983;SDS011;73733;53.046;8.724;2024-02-26T12:55:50;4.65;;;2.10;;
80983;SDS011;73733;53.046;8.724;2024-02-26T12:58:15;4.03;;;2.80;;
80983;SDS011;73733;53.046;8.724;2024-02-26T13:00:41;3.40;;;2.42;;
80983;SDS011;73733;53.046;8.724;2024-02-26T13:03:06;3.15;;;2.55;;
80983;SDS011;73733;53.046;8.724;2024-02-26T13:05:32;4.40;;;2.70;;
80983;SDS011;73733;53.046;8.724;2024-02-26T13:07:58;3.60;;;2.92;;
80983;SDS011;73733;53.046;8.724;2024-02-26T13:10:23;4.53;;;2.97;;
80983;SDS011;73733;53.046;8.724;2024-02-26T13:12:50;4.40;;;2.40;;
80983;SDS011;73733;53.046;8.724;2024-02-26T13:15:16;3.38;;;2.42;;
80983;SDS011;73733;53.046;8.724;2024-02-26T13:17:43;3.55;;;2.45;;
80983;SDS011;73733;53.046;8.724;2024-02-26T13:20:09;3.58;;;2.30;;
80983;SDS011;73733;53.046;8.724;2024-02-26T13:22:35;3.97;;;2.53;;
80983;SDS011;73733;53.046;8.724;2024-02-26T13:25:01;3.47;;;2.55;;
80983;SDS011;73733;53.046;8.724;2024-02-26T13:27:28;3.65;;;2.75;;
80983;SDS011;73733;53.046;8.724;2024-02-26T13:30:03;3.50;;;2.33;;
80983;SDS011;73733;53.046;8.724;2024-02-26T13:32:31;3.25;;;2.45;;
80983;SDS011;73733;53.046;8.724;2024-02-26T13:35:07;3.33;;;2.03;;
80983;SDS011;73733;53.046;8.724;2024-02-26T13:37:34;3.30;;;2.08;;
80983;SDS011;73733;53.046;8.724;2024-02-26T13:40:00;3.75;;;2.17;;
80983;SDS011;73733;53.046;8.724;2024-02-26T13:42:29;3.17;;;2.08;;
80983;SDS011;73733;53.046;8.724;2024-02-26T13:44:54;3.22;;;2.30;;
80983;SDS011;73733;53.046;8.724;2024-02-26T13:47:20;3.17;;;1.93;;
80983;SDS011;73733;53.046;8.724;2024-02-26T13:49:45;2.60;;;1.87;;
80983;SDS011;73733;53.046;8.724;2024-02-26T13:52:10;2.70;;;1.80;;
80983;SDS011;73733;53.046;8.724;2024-02-26T13:54:36;4.35;;;2.35;;
80983;SDS011;73733;53.046;8.724;2024-02-26T13:59:29;5.88;;;3.95;;
80983;SDS011;73733;53.046;8.724;2024-02-26T14:01:54;4.53;;;2.80;;
80983;SDS011;73733;53.046;8.724;2024-02-26T14:04:20;3.53;;;2.47;;
80983;SDS011;73733;53.046;8.724;2024-02-26T14:06:45;3.03;;;1.77;;
80983;SDS011;73733;53.046;8.724;2024-02-26T14:09:11;2.92;;;2.03;;
80983;SDS011;73733;53.046;8.724;2024-02-26T14:11:36;3.97;;;2.42;;
80983;SDS011;73733;53.046;8.724;2024-02-26T14:14:02;3.78;;;2.17;;
80983;SDS011;73733;53.046;8.724;2024-02-26T14:16:27;3.87;;;2.33;;
80983;SDS011;73733;53.046;8.724;2024-02-26T14:18:53;2.97;;;2.40;;
80983;SDS011;73733;53.046;8.724;2024-02-26T14:21:18;3.43;;;2.07;;
80983;SDS011;73733;53.046;8.724;2024-02-26T14:23:43;2.90;;;1.80;;
80983;SDS011;73733;53.046;8.724;2024-02-26T14:26:09;3.42;;;2.10;;
80983;SDS011;73733;53.046;8.724;2024-02-26T14:28:35;2.80;;;1.90;;
80983;SDS011;73733;53.046;8.724;2024-02-26T14:31:00;3.13;;;2.00;;
80983;SDS011;73733;53.046;8.724;2024-02-26T14:33:25;3.93;;;2.43;;
80983;SDS011;73733;53.046;8.724;2024-02-26T14:35:51;4.27;;;2.30;;
80983;SDS011;73733;53.046;8.724;2024-02-26T14:38:16;4.50;;;2.27;;
80983;SDS011;73733;53.046;8.724;2024-02-26T14:40:41;3.13;;;2.00;;
80983;SDS011;73733;53.046;8.724;2024-02-26T14:43:07;3.33;;;1.90;;
80983;SDS011;73733;53.046;8.724;2024-02-26T14:45:34;4.53;;;2.58;;
80983;SDS011;73733;53.046;8.724;2024-02-26T14:48:00;3.87;;;2.60;;
80983;SDS011;73733;53.046;8.724;2024-02-26T14:50:25;3.93;;;2.57;;
80983;SDS011;73733;53.046;8.724;2024-02-26T14:52:50;2.57;;;1.80;;
80983;SDS011;73733;53.046;8.724;2024-02-26T14:55:16;3.78;;;2.38;;
80983;SDS011;73733;53.046;8.724;2024-02-26T14:57:41;3.70;;;2.57;;
80983;SDS011;73733;53.046;8.724;2024-02-26T15:00:07;3.30;;;2.20;;